首页
METAR-TAF:

METAR-TAF

机场 :

圣约翰, 新不倫瑞克, 加拿大

纬度: 45-20N, 经度: 065-53W, 海拔: 103米

当前天气观测

该预报发布于14分钟前的22:52 UTC
风速9节,风向西南,有时为15节阵风
温度 2°C
湿度 93%
气压 1013 hPa
能見度: 12.9公里
阴天层高于1000英尺
小雨

METAR: CYSJ 262252Z 23009G15KT 8SM -RA OVC010 02/01 A2991 RMK SC8 SLP134

时间: 19:06 (23:06 UTC)

预报

该预报发布于3小时和32分钟前的19:34 UTC
预报有效从26日的 19点(UTC)到 27日的 06点(UTC)
风速12节,风向西南,有时为22节阵风
能見度: 10公里
阴天层高于1000英尺
短暂存在
从 26日的 19点(UTC)到 27日的 02点(UTC)
能見度: 6.4公里
阴天层高于800英尺
小阵雪, 雨, 轻雾
从 27日的 0200点(UTC)
风速10节,风向西转西北,有时为20节阵风
能見度: 10公里
少量云层高于2500英尺
成为
从 27日的 02点(UTC)到 27日的 04点(UTC)
风速8节,风向西转西北

TAF: CYSJ 261934Z 2619/2706 22012G22KT P6SM OVC010 TEMPO 2619/2702 4SM -SHSNRA BR OVC008 FM270200 30010G20KT P6SM FEW025 BECMG 2702/2704 30008KT RMK NXT FCST BY 270000Z

超过4000个机场的气象观测和天气预报(METAR&TAF报告)。

可查询的气象台以黄色和红色小点在地图上表示。

将鼠标移到小点上方,可查看气象台名称。

然后点击查看天气观测和预报。

如需切换地图:点击带黑十字的绿色按钮放大地图;点击带横线的绿色按钮缩小地图;或者点击绿色箭头查看邻近地区的地图。


METAR-TAF: